Flight Track Log - Related Links

Times and Time Zones

All times are in EDT time to prevent confusion due to time zone crossing. See the SWA1435 flight status page for this flight to view local times or setup timezone preferences in your user account.

Time Position Orientation Groundspeed Altitude Reporting Facility
EDT Latitude Longitude Course Direction KTS MPH feet Rate Location/Type
Mon 07:09:27 AM 32.8167 -96.8167 90° East 168 193 2,000  Level Dallas / Fort Worth TRACON
Mon 07:10:33 AM 32.8167 -96.7500 90° East 273 314 4,400 2,643 Climbing Dallas / Fort Worth TRACON
Mon 07:12:15 AM 32.9422 -96.7525 359° North 285 328 9,400 2,741 Climbing Fort Worth Center
Mon 07:13:15 AM 33.0217 -96.7619 354° North 307 353 11,800 2,700 Climbing Fort Worth Center
Mon 07:14:15 AM 33.1242 -96.7783 352° North 333 383 14,800 2,600 Climbing Fort Worth Center
Mon 07:15:15 AM 33.2222 -96.7828 358° North 343 395 17,000 2,350 Climbing Fort Worth Center
Mon 07:16:15 AM 33.3136 -96.7100 34° Northeast 348 400 19,500 2,550 Climbing Fort Worth Center
Mon 07:17:15 AM 33.4072 -96.6369 33° Northeast 389 448 22,100 2,250 Climbing Fort Worth Center
Mon 07:18:15 AM 33.4964 -96.5667 33° Northeast 412 474 24,000 1,850 Climbing Fort Worth Center
Mon 07:19:15 AM 33.5961 -96.4883 33° Northeast 421 484 25,800 1,550 Climbing Fort Worth Center
Mon 07:20:15 AM 33.7019 -96.4022 34° Northeast 432 497 27,100 1,550 Climbing Fort Worth Center
Mon 07:21:15 AM 33.8097 -96.3186 33° Northeast 455 524 28,900 1,750 Climbing Fort Worth Center
Mon 07:22:15 AM 33.9175 -96.2322 34° Northeast 462 532 30,600 1,650 Climbing Fort Worth Center
Mon 07:23:15 AM 34.0314 -96.1428 33° Northeast 469 540 32,200 1,750 Climbing Fort Worth Center
Mon 07:24:15 AM 34.1431 -96.0508 34° Northeast 458 527 34,100 1,650 Climbing Fort Worth Center
Mon 07:25:15 AM 34.2547 -95.9611 34° Northeast 460 529 35,500 1,250 Climbing Fort Worth Center
Mon 07:26:15 AM 34.3600 -95.8739 34° Northeast 466 536 36,600 750 Climbing Fort Worth Center
Mon 07:27:15 AM 34.4717 -95.7836 34° Northeast 461 531 37,000 200 Climbing Fort Worth Center
Mon 07:28:15 AM 34.5769 -95.6961 34° Northeast 461 531 37,000  Level Fort Worth Center
Mon 07:29:15 AM 34.6861 -95.6081 34° Northeast 461 531 37,000  Level Fort Worth Center
Mon 07:31:06 AM 34.8700 -95.4575 34° Northeast 471 542 37,000  Level Kansas City Center
Mon 07:31:42 AM 34.9539 -95.3914 33° Northeast 457 526 37,000  Level Memphis Center
Mon 07:32:42 AM 35.0617 -95.3039 34° Northeast 457 526 37,000  Level Memphis Center
Mon 07:33:42 AM 35.1564 -95.2256 34° Northeast 457 526 37,000  Level Memphis Center
Mon 07:34:42 AM 35.2644 -95.1328 35° Northeast 457 526 37,000  Level Memphis Center
Mon 07:35:42 AM 35.3697 -95.0447 34° Northeast 457 526 37,000  Level Memphis Center
Mon 07:36:42 AM 35.4797 -94.9539 34° Northeast 457 526 37,000  Level Memphis Center
Mon 07:37:42 AM 35.5850 -94.8653 34° Northeast 457 526 37,000  Level Memphis Center
Mon 07:38:42 AM 35.6925 -94.7739 35° Northeast 457 526 37,000  Level Memphis Center
Mon 07:39:42 AM 35.8000 -94.6825 35° Northeast 457 526 37,000  Level Memphis Center
Mon 07:40:42 AM 35.9203 -94.5811 34° Northeast 463 533 37,000  Level Memphis Center
Mon 07:41:42 AM 36.0275 -94.4917 34° Northeast 463 533 37,000  Level Memphis Center
Mon 07:42:42 AM 36.1369 -94.3969 35° Northeast 463 533 37,000  Level Memphis Center
Mon 07:43:42 AM 36.2464 -94.3047 34° Northeast 463 533 37,000  Level Memphis Center
Mon 07:45:17 AM 36.4011 -94.1708 35° Northeast 476 548 37,000  Level Kansas City Center
Mon 07:46:19 AM 36.5103 -94.0767 35° Northeast 477 549 37,000  Level Kansas City Center
Mon 07:47:19 AM 36.6408 -93.9631 35° Northeast 478 550 37,000  Level Kansas City Center
Mon 07:48:22 AM 36.7508 -93.8667 35° Northeast 481 554 37,000  Level Kansas City Center
Mon 07:49:21 AM 36.8611 -93.7719 34° Northeast 481 554 37,000  Level Kansas City Center
Mon 07:50:22 AM 36.9578 -93.6867 35° Northeast 479 551 37,000  Level Kansas City Center
Mon 07:51:26 AM 37.0650 -93.5894 36° Northeast 476 548 37,000  Level Kansas City Center
Mon 07:52:24 AM 37.1761 -93.4956 34° Northeast 477 549 37,000  Level Kansas City Center
Mon 07:53:25 AM 37.2856 -93.4006 35° Northeast 478 550 37,000  Level Kansas City Center
Mon 07:54:26 AM 37.4122 -93.2778 38° Northeast 476 548 37,000  Level Kansas City Center
Mon 07:55:30 AM 37.5083 -93.1583 45° Northeast 482 555 37,000  Level Kansas City Center
Mon 07:56:28 AM 37.6086 -93.0433 42° Northeast 483 556 37,000  Level Kansas City Center
Mon 07:57:32 AM 37.7086 -92.9250 43° Northeast 487 560 37,000 -194 Level Kansas City Center
Mon 07:58:32 AM 37.8078 -92.8072 43° Northeast 487 560 36,600 -744 Descending Kansas City Center
Mon 07:59:33 AM 37.9078 -92.6872 43° Northeast 480 552 35,500 -1,033 Descending Kansas City Center
Mon 08:00:34 AM 37.9836 -92.5464 56° Northeast 480 552 34,500 -1,131 Descending Kansas City Center
Mon 08:01:35 AM 38.0575 -92.4039 57° Northeast 485 558 33,200 -2,852 Descending Kansas City Center
Mon 08:02:36 AM 38.1061 -92.2425 69° East 500 575 28,700 -3,934 Descending Kansas City Center
Mon 08:03:37 AM 38.1661 -92.0656 67° East 507 583 25,200 -2,951 Descending Kansas City Center
Mon 08:04:38 AM 38.2456 -91.9275 54° Northeast 485 558 22,700 -2,468 Descending Kansas City Center
Mon 08:05:41 AM 38.3172 -91.8003 54° Northeast 451 519 20,100 -2,656 Descending Kansas City Center
Mon 08:06:40 AM 38.3672 -91.6658 65° Northeast 421 484 17,300 -2,723 Descending Kansas City Center
Mon 08:07:40 AM 38.4075 -91.5311 69° East 409 471 14,700 -1,935 Descending Kansas City Center
Mon 08:08:44 AM 38.4456 -91.4050 69° East 387 445 13,300 -1,392 Descending Kansas City Center
Mon 08:09:45 AM 38.4778 -91.2981 69° East 370 426 11,800 -1,211 Descending Kansas City Center
Mon 08:10:38 AM 38.5333 -91.1192 68° East 358 412 11,000 -658 Descending FAA TRACON SMA TRACON (SMA)
Mon 08:10:58 AM 38.5500 -91.0875 56° Northeast 353 406 11,000 -300 Level FAA TRACON SMA TRACON (SMA)
Mon 08:11:18 AM 38.5656 -91.0564 57° Northeast 343 395 10,800 -1,500 Descending FAA TRACON SMA TRACON (SMA)
Mon 08:11:38 AM 38.5858 -91.0189 55° Northeast 334 384 10,000 -2,250 Descending FAA TRACON SMA TRACON (SMA)
Mon 08:11:58 AM 38.6003 -90.9889 58° Northeast 329 379 9,300 -1,950 Descending FAA TRACON SMA TRACON (SMA)
Mon 08:12:18 AM 38.6158 -90.9592 56° Northeast 327 376 8,700 -1,350 Descending FAA TRACON SMA TRACON (SMA)
Mon 08:12:38 AM 38.6336 -90.9231 58° Northeast 317 365 8,400 -900 Descending FAA TRACON SMA TRACON (SMA)
Mon 08:12:58 AM 38.6472 -90.8953 58° Northeast 305 351 8,100 -600 Descending FAA TRACON SMA TRACON (SMA)
Mon 08:13:18 AM 38.6614 -90.8689 55° Northeast 295 339 8,000 -150 Descending FAA TRACON SMA TRACON (SMA)
Mon 08:13:38 AM 38.6747 -90.8433 56° Northeast 285 328 8,000  Level FAA TRACON SMA TRACON (SMA)
Mon 08:13:58 AM 38.6908 -90.8108 58° Northeast 282 325 8,000 -300 Level FAA TRACON SMA TRACON (SMA)
Mon 08:14:18 AM 38.7039 -90.7847 57° Northeast 283 326 7,800 -1,350 Descending FAA TRACON SMA TRACON (SMA)
Mon 08:14:38 AM 38.7169 -90.7589 57° Northeast 282 325 7,100 -2,250 Descending FAA TRACON SMA TRACON (SMA)
Mon 08:14:58 AM 38.7339 -90.7269 56° Northeast 283 326 6,300 -1,953 Descending FAA TRACON SMA TRACON (SMA)
Mon 08:15:21 AM 38.7467 -90.7011 58° Northeast 282 325 5,700 -1,814 Descending FAA TRACON SMA TRACON (SMA)
Mon 08:15:41 AM 38.7628 -90.6692 57° Northeast 281 323 5,000 -1,946 Descending FAA TRACON SMA TRACON (SMA)
Mon 08:15:58 AM 38.7764 -90.6428 57° Northeast 284 327 4,500 -1,622 Descending FAA TRACON SMA TRACON (SMA)
Mon 08:16:18 AM 38.7892 -90.6169 58° Northeast 282 325 4,000 -900 Descending FAA TRACON SMA TRACON (SMA)
Mon 08:16:38 AM 38.8044 -90.5856 58° Northeast 273 314 3,900 -450 Descending FAA TRACON SMA TRACON (SMA)
Mon 08:16:58 AM 38.8164 -90.5619 57° Northeast 261 300 3,700 -450 Descending FAA TRACON SMA TRACON (SMA)
Mon 08:17:18 AM 38.8278 -90.5386 58° Northeast 251 289 3,600 -450 Descending FAA TRACON SMA TRACON (SMA)
Mon 08:17:38 AM 38.8311 -90.5142 80° East 241 277 3,400 -450 Descending FAA TRACON SMA TRACON (SMA)
Mon 08:17:58 AM 38.8281 -90.4858 98° East 220 253 3,300 -300 Descending FAA TRACON SMA TRACON (SMA)
Mon 08:18:18 AM 38.8194 -90.4667 120° Southeast 203 234 3,200 -750 Descending FAA TRACON SMA TRACON (SMA)
Mon 08:18:38 AM 38.8100 -90.4475 122° Southeast 203 234 2,800 -1,350 Descending FAA TRACON SMA TRACON (SMA)
Mon 08:18:58 AM 38.7978 -90.4228 122° Southeast 213 245 2,300 -1,050 Descending FAA TRACON SMA TRACON (SMA)
Mon 08:19:18 AM 38.7883 -90.4042 123° Southeast 207 238 2,100 -750 Descending FAA TRACON SMA TRACON (SMA)
Mon 08:19:38 AM 38.7800 -90.3872 122° Southeast 190 219 1,800 -1,050 Descending FAA TRACON SMA TRACON (SMA)
Mon 08:19:58 AM 38.7708 -90.3683 122° Southeast 165 190 1,400 -900 Descending FAA TRACON SMA TRACON (SMA)
Mon 08:20:18 AM 38.7639 -90.3547 123° Southeast 152 175 1,200 -750 Descending FAA TRACON SMA TRACON (SMA)
Mon 08:20:38 AM 38.7569 -90.3408 123° Southeast 149 171 900 -750 Descending FAA TRACON SMA TRACON (SMA)
Mon 08:20:58 AM 38.7500 -90.3269 123° Southeast 149 171 700 -600 Descending FAA TRACON SMA TRACON (SMA)
Mon 08:22:00 AM 38.7333 -90.3667 180° South  Level FlightAware Approximate
Mon 08:29:00 AM 38.7487 -90.3700 180° South  Level Estimated

Login

Don't have an account? Register now (free) for customized features, flight alerts, and more!